createdAt,value
2022-12-31T00:01:36.097Z,95343.84
2022-12-31T00:04:09.240Z,95343.81
2022-12-31T00:06:56.082Z,95340.44
2022-12-31T00:09:36.103Z,95350.50
2022-12-31T00:12:30.080Z,95341.16
2022-12-31T00:15:17.137Z,95348.66
2022-12-31T00:17:50.205Z,95353.63
2022-12-31T00:20:37.117Z,95350.25
2022-12-31T00:23:11.378Z,95351.06
2022-12-31T00:25:58.099Z,95350.16
2022-12-31T00:28:31.275Z,95348.44
2022-12-31T00:31:22.132Z,95347.50
2022-12-31T00:33:56.224Z,95348.31
2022-12-31T00:36:45.117Z,95349.09
2022-12-31T00:39:18.297Z,95354.06
2022-12-31T00:42:05.112Z,95354.00
2022-12-31T00:44:45.099Z,95361.53
2022-12-31T00:47:33.135Z,95359.78
2022-12-31T00:50:13.117Z,95351.38
2022-12-31T00:53:00.128Z,95355.53
2022-12-31T00:55:36.106Z,95354.63
2022-12-31T00:58:23.102Z,95353.75
2022-12-31T01:00:56.281Z,95358.78
2022-12-31T01:03:43.126Z,95370.53
2022-12-31T01:06:18.217Z,95357.91
2022-12-31T01:09:05.125Z,95361.22
2022-12-31T01:11:45.119Z,95362.81
2022-12-31T01:14:32.150Z,95356.88
2022-12-31T01:17:05.248Z,95347.63
2022-12-31T01:19:55.136Z,95332.41
2022-12-31T01:22:28.295Z,95328.16
2022-12-31T01:25:15.120Z,95337.34
2022-12-31T01:27:55.125Z,95345.75
2022-12-31T01:30:53.134Z,95348.28
2022-12-31T01:33:41.142Z,95341.56
2022-12-31T01:36:27.132Z,95348.25
2022-12-31T01:39:22.143Z,95355.78
2022-12-31T01:42:09.119Z,95354.06
2022-12-31T01:44:45.239Z,95367.53
2022-12-31T01:47:44.221Z,95370.03
2022-12-31T01:50:34.126Z,95366.63
2022-12-31T01:53:30.207Z,95362.28
2022-12-31T01:56:18.302Z,95363.97
2022-12-31T01:58:56.316Z,95354.72
2022-12-31T02:01:45.205Z,95360.59
2022-12-31T02:04:27.158Z,95376.50
2022-12-31T02:07:16.149Z,95374.72
2022-12-31T02:09:56.131Z,95369.66
2022-12-31T02:12:43.129Z,95368.69
2022-12-31T02:15:24.144Z,95365.28
2022-12-31T02:18:35.213Z,95366.91
2022-12-31T02:21:33.138Z,95369.34
2022-12-31T02:24:27.197Z,95373.44
2022-12-31T02:27:13.153Z,95375.03
2022-12-31T02:30:06.148Z,95363.19
2022-12-31T02:33:04.231Z,95370.75
2022-12-31T02:35:56.137Z,95366.50
2022-12-31T02:38:33.390Z,95371.44
2022-12-31T02:41:42.148Z,95376.44
2022-12-31T02:44:38.348Z,95363.84
2022-12-31T02:47:43.157Z,95370.50
2022-12-31T02:50:34.300Z,95373.81
2022-12-31T02:53:31.147Z,95387.19
2022-12-31T02:56:20.151Z,95389.69
2022-12-31T02:59:40.227Z,95377.06
2022-12-31T03:02:30.248Z,95393.75
2022-12-31T03:05:11.184Z,95387.00
2022-12-31T03:08:05.158Z,95381.94
2022-12-31T03:10:52.188Z,95376.00
2022-12-31T03:13:25.291Z,95384.44
2022-12-31T03:16:12.256Z,95388.59
2022-12-31T03:19:24.214Z,95382.66
2022-12-31T03:22:36.258Z,95389.34
2022-12-31T03:25:41.223Z,95393.56
2022-12-31T03:28:24.173Z,95387.59
2022-12-31T03:31:00.387Z,95383.44
2022-12-31T03:33:48.179Z,95384.28
2022-12-31T03:36:29.221Z,95376.84
2022-12-31T03:39:23.173Z,95385.28
2022-12-31T03:42:10.171Z,95385.28
2022-12-31T03:44:43.316Z,95382.03
2022-12-31T03:47:30.196Z,95388.03
2022-12-31T03:50:03.316Z,95393.13
2022-12-31T03:52:50.173Z,95391.53
2022-12-31T03:55:30.224Z,95394.13
2022-12-31T03:58:17.166Z,95387.50
2022-12-31T04:00:50.349Z,95389.25
2022-12-31T04:03:37.227Z,95390.22
2022-12-31T04:06:18.297Z,95392.00
2022-12-31T04:09:12.197Z,95391.22
2022-12-31T04:12:14.197Z,95380.41
2022-12-31T04:15:01.339Z,95391.44
2022-12-31T04:17:41.249Z,95394.06
2022-12-31T04:20:28.200Z,95388.28
2022-12-31T04:23:01.314Z,95378.31
2022-12-31T04:25:48.179Z,95374.16
2022-12-31T04:28:28.196Z,95365.84
2022-12-31T04:31:15.229Z,95361.72
2022-12-31T04:33:51.339Z,95370.25
2022-12-31T04:36:38.189Z,95363.66
2022-12-31T04:39:11.326Z,95343.53
2022-12-31T04:41:58.243Z,95333.53
2022-12-31T04:44:31.735Z,95357.16
2022-12-31T04:47:23.404Z,95371.50
2022-12-31T04:49:57.333Z,95364.88
2022-12-31T04:52:44.188Z,95355.72
2022-12-31T04:55:17.324Z,95357.47
2022-12-31T04:58:04.188Z,95357.53
2022-12-31T05:00:37.426Z,95360.97
2022-12-31T05:03:25.281Z,95374.53
2022-12-31T05:05:59.320Z,95379.63
2022-12-31T05:08:46.256Z,95380.63
2022-12-31T05:11:20.391Z,95384.13
2022-12-31T05:14:07.226Z,95372.44
2022-12-31T05:16:40.406Z,95370.00
2022-12-31T05:19:28.573Z,95372.56
2022-12-31T05:22:19.895Z,95367.50
2022-12-31T05:25:07.229Z,95365.91
2022-12-31T05:27:51.229Z,95372.72
2022-12-31T05:30:45.260Z,95368.50
2022-12-31T05:33:39.230Z,95369.34
2022-12-31T05:36:26.300Z,95374.44
2022-12-31T05:38:59.496Z,95372.78
2022-12-31T05:41:46.277Z,95371.97
2022-12-31T05:44:26.246Z,95371.19
2022-12-31T05:47:22.974Z,95380.50
2022-12-31T05:50:16.260Z,95377.19
2022-12-31T05:53:03.322Z,95378.06
2022-12-31T05:55:36.347Z,95378.94
2022-12-31T05:58:23.255Z,95374.72
2022-12-31T06:00:58.379Z,95379.78
2022-12-31T06:03:45.247Z,95389.91
2022-12-31T06:06:18.371Z,95391.66
2022-12-31T06:09:05.229Z,95401.00
2022-12-31T06:11:38.350Z,95398.47
2022-12-31T06:14:25.251Z,95395.97
2022-12-31T06:16:58.384Z,95404.41
2022-12-31T06:19:45.267Z,95398.53
2022-12-31T06:22:18.352Z,95397.75
2022-12-31T06:25:05.253Z,95399.47
2022-12-31T06:27:38.343Z,95411.31
2022-12-31T06:30:27.234Z,95420.59
2022-12-31T06:33:08.251Z,95429.06
2022-12-31T06:35:55.238Z,95434.13
2022-12-31T06:38:35.258Z,95424.06
2022-12-31T06:41:25.236Z,95432.53
2022-12-31T06:44:05.236Z,95422.44
2022-12-31T06:46:59.243Z,95435.13
2022-12-31T06:49:47.236Z,95439.38
2022-12-31T06:52:20.523Z,95443.63
2022-12-31T06:55:07.238Z,95436.88
2022-12-31T06:57:48.321Z,95448.72
2022-12-31T07:00:35.237Z,95456.34
2022-12-31T07:03:43.235Z,95460.56
2022-12-31T07:06:44.284Z,95477.41
2022-12-31T07:09:44.261Z,95472.34
2022-12-31T07:12:58.327Z,95463.97
2022-12-31T07:16:23.345Z,95460.63
2022-12-31T07:19:57.685Z,95486.84
2022-12-31T07:22:51.260Z,95496.94
2022-12-31T07:25:39.255Z,95490.31
2022-12-31T07:28:23.417Z,95481.13
2022-12-31T07:31:31.310Z,95476.16
2022-12-31T07:34:35.054Z,95482.97
2022-12-31T07:37:35.274Z,95475.50
2022-12-31T07:40:39.246Z,95470.50
2022-12-31T07:43:31.682Z,95476.47
2022-12-31T07:46:29.408Z,95482.41
2022-12-31T07:49:10.262Z,95472.38
2022-12-31T07:52:04.308Z,95481.75
2022-12-31T07:54:56.785Z,95479.25
2022-12-31T07:57:46.418Z,95482.69
2022-12-31T08:00:42.331Z,95486.97
2022-12-31T08:03:47.335Z,95494.69
2022-12-31T08:06:34.320Z,95496.44
2022-12-31T08:09:53.334Z,95509.19
2022-12-31T08:12:51.335Z,95505.06
2022-12-31T08:15:38.299Z,95508.53
2022-12-31T08:18:13.436Z,95522.13
2022-12-31T08:21:14.337Z,95507.91
2022-12-31T08:24:21.175Z,95507.22
2022-12-31T08:27:36.357Z,95504.97
2022-12-31T08:30:34.437Z,95511.88
2022-12-31T08:33:46.356Z,95506.91
2022-12-31T08:36:45.404Z,95503.56
2022-12-31T08:39:54.342Z,95501.09
2022-12-31T08:43:03.336Z,95509.56
2022-12-31T08:46:07.290Z,95513.81
2022-12-31T08:48:55.334Z,95509.59
2022-12-31T08:51:31.412Z,95518.94
2022-12-31T08:54:19.266Z,95515.56
2022-12-31T08:57:01.416Z,95528.25
2022-12-31T09:00:08.311Z,95539.22
2022-12-31T09:03:07.455Z,95529.06
2022-12-31T09:06:09.339Z,95534.13
2022-12-31T09:09:09.443Z,95533.25
2022-12-31T09:12:15.436Z,95531.59
2022-12-31T09:15:11.415Z,95539.22
2022-12-31T09:18:05.348Z,95534.16
2022-12-31T09:20:52.368Z,95531.66
2022-12-31T09:23:25.431Z,95533.34
2022-12-31T09:26:45.338Z,95533.34
2022-12-31T09:29:33.017Z,95525.72
2022-12-31T09:32:42.346Z,95523.16
2022-12-31T09:35:43.337Z,95518.03
2022-12-31T09:39:30.340Z,95511.25
2022-12-31T09:42:51.343Z,95495.16
2022-12-31T09:45:31.419Z,95505.28
2022-12-31T09:48:42.392Z,95503.59
2022-12-31T09:51:39.345Z,95505.28
2022-12-31T09:54:45.419Z,95504.44
2022-12-31T09:57:49.541Z,95506.94
2022-12-31T10:00:57.397Z,95518.78
2022-12-31T10:04:00.348Z,95517.97
2022-12-31T10:06:59.334Z,95521.31
2022-12-31T10:10:06.363Z,95524.72
2022-12-31T10:13:21.384Z,95541.66
2022-12-31T10:16:17.392Z,95527.25
2022-12-31T10:19:25.441Z,95521.38
2022-12-31T10:22:55.336Z,95523.91
2022-12-31T10:26:07.390Z,95525.56
2022-12-31T10:29:01.465Z,95541.66
2022-12-31T10:31:57.390Z,95509.50
2022-12-31T10:35:18.468Z,95514.59
2022-12-31T10:38:26.379Z,95499.38
2022-12-31T10:41:15.452Z,95501.06
2022-12-31T10:44:21.334Z,95506.16
2022-12-31T10:47:53.378Z,95512.09
2022-12-31T10:51:01.348Z,95517.97
2022-12-31T10:53:59.425Z,95522.25
2022-12-31T10:57:13.386Z,95509.53
2022-12-31T11:00:12.385Z,95512.06
2022-12-31T11:03:16.423Z,95505.34
2022-12-31T11:06:39.383Z,95501.97
2022-12-31T11:09:36.845Z,95502.00
2022-12-31T11:12:49.383Z,95497.81
2022-12-31T11:15:51.557Z,95479.22
2022-12-31T11:18:46.382Z,95485.16
2022-12-31T11:21:49.390Z,95497.03
2022-12-31T11:25:00.389Z,95500.41
2022-12-31T11:28:00.403Z,95486.06
2022-12-31T11:30:54.923Z,95481.81
2022-12-31T11:33:50.483Z,95488.59
2022-12-31T11:36:51.386Z,95479.34
2022-12-31T11:40:06.367Z,95478.47
2022-12-31T11:43:05.389Z,95476.78
2022-12-31T11:45:50.676Z,95470.03
2022-12-31T11:49:07.387Z,95479.31
2022-12-31T11:52:07.919Z,95483.53
2022-12-31T11:55:16.380Z,95490.28
2022-12-31T11:58:02.412Z,95492.81
2022-12-31T12:01:13.451Z,95491.16
2022-12-31T12:03:47.540Z,95500.44
2022-12-31T12:06:36.386Z,95503.81
2022-12-31T12:09:21.393Z,95504.69
2022-12-31T12:12:11.404Z,95493.72
2022-12-31T12:14:56.413Z,95486.94
2022-12-31T12:17:51.406Z,95497.09
2022-12-31T12:20:42.374Z,95500.50
2022-12-31T12:23:32.874Z,95489.53
2022-12-31T12:26:40.394Z,95494.63
2022-12-31T12:29:41.465Z,95491.25
2022-12-31T12:32:31.391Z,95508.13
2022-12-31T12:35:11.409Z,95504.72
2022-12-31T12:38:14.357Z,95512.34
2022-12-31T12:40:47.451Z,95525.84
2022-12-31T12:43:42.401Z,95537.66
2022-12-31T12:46:48.067Z,95538.53
2022-12-31T12:50:02.398Z,95536.84
2022-12-31T12:53:02.371Z,95532.59
2022-12-31T12:55:44.489Z,95519.88
2022-12-31T12:58:47.433Z,95521.59
2022-12-31T13:02:04.438Z,95510.59
2022-12-31T13:05:28.210Z,95529.19
2022-12-31T13:08:30.375Z,95520.75
2022-12-31T13:11:32.369Z,95521.56
2022-12-31T13:15:17.446Z,95524.09
2022-12-31T13:18:26.383Z,95508.03
2022-12-31T13:21:49.441Z,95507.16
2022-12-31T13:24:37.553Z,95505.50
2022-12-31T13:27:34.387Z,95508.88
2022-12-31T13:30:18.393Z,95513.13
2022-12-31T13:33:14.384Z,95522.44
2022-12-31T13:36:18.401Z,95529.19
2022-12-31T13:39:15.445Z,95533.41
2022-12-31T13:42:09.449Z,95540.19
2022-12-31T13:45:08.407Z,95539.31
2022-12-31T13:48:07.436Z,95538.44
2022-12-31T13:51:26.415Z,95551.94
2022-12-31T13:54:19.494Z,95550.22
2022-12-31T13:57:12.393Z,95556.97
2022-12-31T13:59:59.441Z,95558.66
2022-12-31T14:03:47.441Z,95555.25
2022-12-31T14:07:01.746Z,95556.91
2022-12-31T14:09:49.459Z,95551.84
2022-12-31T14:12:39.498Z,95550.13
2022-12-31T14:15:43.440Z,95551.81
2022-12-31T14:18:26.504Z,95556.03
2022-12-31T14:21:21.431Z,95564.50
2022-12-31T14:24:09.531Z,95554.31
2022-12-31T14:27:01.452Z,95565.31
2022-12-31T14:29:54.512Z,95564.47
2022-12-31T14:32:51.456Z,95571.22
2022-12-31T14:35:49.535Z,95574.56
2022-12-31T14:38:50.408Z,95582.16
2022-12-31T14:41:52.428Z,95573.63
2022-12-31T14:45:15.439Z,95574.44
2022-12-31T14:48:31.437Z,95578.63
2022-12-31T14:51:07.528Z,95570.97
2022-12-31T14:54:00.443Z,95566.72
2022-12-31T14:56:42.433Z,95567.50
2022-12-31T14:59:44.428Z,95568.34
2022-12-31T15:02:40.570Z,95569.16
2022-12-31T15:05:30.502Z,95576.78
2022-12-31T15:08:49.449Z,95582.66
2022-12-31T15:12:07.446Z,95561.53
2022-12-31T15:14:58.539Z,95570.81
2022-12-31T15:18:04.426Z,95586.00
2022-12-31T15:20:51.430Z,95582.66
2022-12-31T15:23:30.576Z,95571.69
2022-12-31T15:26:30.442Z,95581.84
2022-12-31T15:29:25.529Z,95588.59
2022-12-31T15:32:23.450Z,95605.50
2022-12-31T15:35:18.458Z,95603.75
2022-12-31T15:38:10.417Z,95613.88
2022-12-31T15:40:50.704Z,95622.28
2022-12-31T15:43:58.455Z,95630.72
2022-12-31T15:46:37.592Z,95635.75
2022-12-31T15:49:31.531Z,95631.50
2022-12-31T15:52:21.543Z,95639.94
2022-12-31T15:55:12.472Z,95623.91
2022-12-31T15:57:47.584Z,95635.69
2022-12-31T16:00:48.451Z,95633.16
2022-12-31T16:03:38.467Z,95637.38
2022-12-31T16:06:25.501Z,95643.28
2022-12-31T16:09:05.457Z,95642.44
2022-12-31T16:11:59.469Z,95634.81
2022-12-31T16:14:52.442Z,95637.34
2022-12-31T16:17:42.616Z,95635.69
2022-12-31T16:20:32.455Z,95635.69
2022-12-31T16:23:08.540Z,95628.97
2022-12-31T16:25:57.446Z,95641.59
2022-12-31T16:28:36.586Z,95646.66
2022-12-31T16:31:28.511Z,95643.25
2022-12-31T16:34:20.485Z,95645.78
2022-12-31T16:37:20.483Z,95661.84
2022-12-31T16:40:02.567Z,95660.97
2022-12-31T16:42:49.461Z,95655.91
2022-12-31T16:45:38.480Z,95657.63
2022-12-31T16:48:27.476Z,95657.63
2022-12-31T16:51:09.470Z,95661.84
2022-12-31T16:53:58.528Z,95673.63
2022-12-31T16:56:44.842Z,95668.50
2022-12-31T16:59:48.482Z,95671.03
2022-12-31T17:02:26.644Z,95663.38
2022-12-31T17:05:26.473Z,95664.19
2022-12-31T17:07:59.567Z,95666.72
2022-12-31T17:10:53.466Z,95664.19
2022-12-31T17:13:36.659Z,95668.44
2022-12-31T17:16:24.547Z,95663.38
2022-12-31T17:18:57.582Z,95655.75
2022-12-31T17:21:44.471Z,95665.88
2022-12-31T17:24:19.587Z,95669.25
2022-12-31T17:27:15.491Z,95673.50
2022-12-31T17:29:55.494Z,95675.16
2022-12-31T17:32:43.487Z,95671.78
2022-12-31T17:35:42.523Z,95673.47
2022-12-31T17:38:32.490Z,95676.00
2022-12-31T17:41:25.656Z,95677.66
2022-12-31T17:44:12.486Z,95678.44
2022-12-31T17:46:46.691Z,95673.34
2022-12-31T17:49:37.504Z,95676.72
2022-12-31T17:52:10.592Z,95677.53
2022-12-31T17:54:57.489Z,95679.16
2022-12-31T17:57:36.178Z,95682.50
2022-12-31T18:00:27.608Z,95686.69
2022-12-31T18:03:00.671Z,95679.09
2022-12-31T18:05:47.513Z,95681.59
2022-12-31T18:08:27.513Z,95680.75
2022-12-31T18:11:21.530Z,95683.25
2022-12-31T18:13:55.626Z,95689.19
2022-12-31T18:16:42.530Z,95679.09
2022-12-31T18:22:40.517Z,95690.06
2022-12-31T18:25:30.544Z,95694.28
2022-12-31T18:28:10.522Z,95692.56
2022-12-31T18:30:57.517Z,95690.03
2022-12-31T18:33:39.515Z,95695.94
2022-12-31T18:36:35.503Z,95703.53
2022-12-31T18:39:32.028Z,95689.19
2022-12-31T18:42:30.520Z,95694.25
2022-12-31T18:45:29.583Z,95680.75
2022-12-31T18:48:23.512Z,95674.84
2022-12-31T18:51:10.541Z,95668.09
2022-12-31T18:53:43.622Z,95692.56
2022-12-31T18:56:31.511Z,95694.22
2022-12-31T18:59:04.615Z,95684.09
2022-12-31T19:01:51.599Z,95692.56
2022-12-31T19:04:28.336Z,95696.75
2022-12-31T19:07:15.532Z,95690.84
2022-12-31T19:09:53.036Z,95686.63
2022-12-31T19:12:43.497Z,95674.75
2022-12-31T19:15:27.629Z,95686.63
2022-12-31T19:18:21.544Z,95684.09
2022-12-31T19:21:09.541Z,95684.09
2022-12-31T19:23:49.518Z,95684.09
2022-12-31T19:26:43.059Z,95673.13
2022-12-31T19:29:39.536Z,95683.19
2022-12-31T19:32:33.508Z,95695.03
2022-12-31T19:35:22.538Z,95694.13
2022-12-31T19:38:00.704Z,95706.00
2022-12-31T19:40:47.544Z,95703.47
2022-12-31T19:43:23.645Z,95693.34
2022-12-31T19:46:10.552Z,95694.13
2022-12-31T19:48:43.716Z,95695.81
2022-12-31T19:51:31.528Z,95710.16
2022-12-31T19:54:05.274Z,95706.81
2022-12-31T19:56:51.525Z,95705.91
2022-12-31T19:59:31.545Z,95713.50
2022-12-31T20:02:19.608Z,95725.28
2022-12-31T20:04:59.529Z,95722.75
2022-12-31T20:07:46.554Z,95720.22
2022-12-31T20:10:26.552Z,95731.19
2022-12-31T20:13:13.555Z,95733.72
2022-12-31T20:15:47.910Z,95747.22
2022-12-31T20:18:41.574Z,95735.38
2022-12-31T20:21:31.541Z,95737.88
2022-12-31T20:24:11.544Z,95742.09
2022-12-31T20:26:58.563Z,95752.22
2022-12-31T20:29:31.658Z,95758.09
2022-12-31T20:32:18.611Z,95752.16
2022-12-31T20:34:51.665Z,95747.94
2022-12-31T20:37:38.552Z,95749.63
2022-12-31T20:40:12.673Z,95758.03
2022-12-31T20:42:59.544Z,95753.81
2022-12-31T20:45:32.671Z,95756.31
2022-12-31T20:48:19.554Z,95756.31
2022-12-31T20:51:10.570Z,95767.22
2022-12-31T20:54:10.578Z,95753.69
2022-12-31T20:56:57.557Z,95751.16
2022-12-31T20:59:30.701Z,95762.13
2022-12-31T21:02:39.267Z,95772.22
2022-12-31T21:05:14.751Z,95767.09
2022-12-31T21:08:01.568Z,95770.50
2022-12-31T21:10:35.777Z,95767.94
2022-12-31T21:13:25.571Z,95763.72
2022-12-31T21:16:00.716Z,95775.56
2022-12-31T21:18:54.587Z,95767.94
2022-12-31T21:21:48.576Z,95771.31
2022-12-31T21:24:35.587Z,95777.22
2022-12-31T21:27:08.693Z,95785.72
2022-12-31T21:30:17.501Z,95783.19
2022-12-31T21:32:55.622Z,95779.81
2022-12-31T21:35:53.743Z,95784.81
2022-12-31T21:38:43.607Z,95791.56
2022-12-31T21:41:36.410Z,95790.81
2022-12-31T21:44:27.589Z,95799.25
2022-12-31T21:47:38.229Z,95793.34
2022-12-31T21:50:25.618Z,95797.56
2022-12-31T21:52:58.688Z,95790.81
2022-12-31T21:56:04.596Z,95794.19
2022-12-31T21:58:45.616Z,95800.09
2022-12-31T22:01:50.623Z,95808.56
2022-12-31T22:05:00.213Z,95795.84
2022-12-31T22:07:30.625Z,95795.03
2022-12-31T22:10:10.601Z,95786.59
2022-12-31T22:13:04.622Z,95790.84
2022-12-31T22:15:52.626Z,95783.22
2022-12-31T22:18:26.702Z,95777.31
2022-12-31T22:21:18.934Z,95779.81
2022-12-31T22:24:05.599Z,95771.41
2022-12-31T22:27:28.653Z,95771.31
2022-12-31T22:30:15.622Z,95767.91
2022-12-31T22:33:09.595Z,95765.38
2022-12-31T22:36:12.617Z,95774.66
2022-12-31T22:39:09.587Z,95770.38
2022-12-31T22:41:56.612Z,95772.91
2022-12-31T22:44:29.794Z,95774.59
2022-12-31T22:47:16.604Z,95777.13
2022-12-31T22:49:49.755Z,95777.97
2022-12-31T22:52:37.614Z,95783.00
2022-12-31T22:55:18.627Z,95778.81
2022-12-31T22:58:12.607Z,95779.63
2022-12-31T23:01:06.655Z,95767.75
2022-12-31T23:03:54.627Z,95773.63
2022-12-31T23:06:29.773Z,95778.69
2022-12-31T23:09:36.628Z,95766.03
2022-12-31T23:12:12.711Z,95760.13
2022-12-31T23:15:18.623Z,95776.16
2022-12-31T23:18:16.616Z,95776.16
2022-12-31T23:21:28.653Z,95775.31
2022-12-31T23:24:26.397Z,95777.84
2022-12-31T23:27:13.639Z,95772.75
2022-12-31T23:29:47.797Z,95779.44
2022-12-31T23:32:34.614Z,95776.91
2022-12-31T23:35:09.937Z,95767.63
2022-12-31T23:37:56.628Z,95776.88
2022-12-31T23:40:40.632Z,95785.34
2022-12-31T23:43:28.626Z,95780.28
2022-12-31T23:46:09.625Z,95781.13
2022-12-31T23:49:03.611Z,95773.53
2022-12-31T23:51:50.632Z,95776.91
2022-12-31T23:54:23.752Z,95782.81
2022-12-31T23:57:10.673Z,95781.94
2022-12-31T23:59:43.750Z,95781.94
